Skip Navigation Links
NOAA logo - Click to go to the NOAA homepage
NOAA's National Weather Service
Alaska Aviation Weather Unit
  NWS logo - Click to go to the NWS homepage
Left Navbar Graphic     01 AKDT = 09 GMT

   
NOAA is celebrating 200 years of science, service, and stewardship. Visit the NOAA 200th celebration Web site to learn more.
USA.gov is the U.S. Government's official Web portal to all Federal, state and local government Web resources and services.
Facebook
NWS on Facebook

Important Change Regarding the AAWU Web Presence

 

Over the last several months, the AAWU has been working to navigate its webpages to a nationally supported server. Security, as well as other needs, have necessitated the change.  We have been given an extension for the site changeover while we diligently work at addressing feedback received. As of July 14, 2017, aawu.arh.noaa.gov will be discontinued. The new AAWU web address is weather.gov/aawu. It is now live and will run in-parallel with the old site until it is discontinued on July 14, 2017. Please continue to send any feedback or questions regarding the new webpages to nws.ar.aawu.webauthors@noaa.gov.  Thank you for your patience during this time of transition.
AAWU Home :: Display TAF Add Bookmark
TESTM CENA2 190317Z AUTO 2703KT 10SM  FEW075 SCT210 BKN240 15/04 A2969 RMK A02 SLP986 T01520038

TESTM CENA2 190347Z AUTO 00000KT 10SM  SCT070 SCT220 15/05 A2969 RMK A02 SLP986 T01460046

TESTM CENA2 190417Z AUTO 00000KT 10SM  BKN075 14/05 A2969 RMK A02 SLP987 T01370047

TESTM CENA2 190447Z AUTO 2704KT 10SM  BKN075 13/04 A2969 RMK A02 SLP988 T01280043

TESTM CENA2 190517Z AUTO 2704KT 10SM  SKC 11/04 A2970 RMK A02 SLP989 T01080043

TESTM CENA2 190547Z AUTO 2704KT 10SM  FEW060 SCT190 10/04 A2970 RMK A02 SLP991 T00990038

TESTM CENA2 190617Z AUTO 00000KT 10SM  FEW170 BKN190 10/04 A2971 RMK A02 SLP994 T00970038

TESTM CENA2 190647Z AUTO 00000KT 10SM  FEW080 BKN170 08/04 A2972 RMK A02 SLP997 T00830039

TESTM CENA2 190717Z AUTO 00000KT 10SM  SCT075 BKN170 07/04 A2972 RMK A02 SLP998 T00720038

TESTM CENA2 190747Z AUTO 00000KT 10SM  BKN180 06/03 A2973 RMK A02 SLP000 T00560032

TESTM CENA2 190817Z AUTO 00000KT 10SM  FEW170 BKN200 05/03 A2974 RMK A02 SLP002 T00470031

TESTM CENA2 190847Z AUTO 00000KT 10SM  BKN160 04/04 A2975 RMK A02 SLP004 T00400035


NOAA's National Weather Service
Alaska Aviation Weather Unit
6930 Sand Lake Road
Anchorage, AK 99502-1845
Disclaimer
Credits
Glossary
Privacy Policy
About Us
Career Opportunities
Contact AAWU Internet Services Site last modified: April, 17th 2012